sensor_id;sensor_type;location;lat;lon;timestamp;pressure;altitude;pressure_sealevel;temperature;humidity
13486;BME280;6815;59.336;17.998;2024-01-27T00:01:45;91682.47;;;-145.37;100.00
13486;BME280;6815;59.336;17.998;2024-01-27T00:04:10;91690.53;;;-145.37;100.00
13486;BME280;6815;59.336;17.998;2024-01-27T00:06:36;91646.09;;;-145.37;100.00
13486;BME280;6815;59.336;17.998;2024-01-27T00:09:02;91494.66;;;-145.37;100.00
13486;BME280;6815;59.336;17.998;2024-01-27T00:11:27;91654.19;;;-145.37;100.00
13486;BME280;6815;59.336;17.998;2024-01-27T00:13:53;91722.84;;;-145.37;100.00
13486;BME280;6815;59.336;17.998;2024-01-27T00:16:18;91710.72;;;-145.37;100.00
13486;BME280;6815;59.336;17.998;2024-01-27T00:18:43;91603.69;;;-145.37;100.00
13486;BME280;6815;59.336;17.998;2024-01-27T00:21:09;91662.25;;;-145.37;100.00
13486;BME280;6815;59.336;17.998;2024-01-27T00:23:35;91696.59;;;-145.37;100.00
13486;BME280;6815;59.336;17.998;2024-01-27T00:26:01;91636.00;;;-145.37;100.00
13486;BME280;6815;59.336;17.998;2024-01-27T00:28:28;91642.06;;;-145.37;100.00
13486;BME280;6815;59.336;17.998;2024-01-27T00:30:53;91682.47;;;-145.37;100.00
13486;BME280;6815;59.336;17.998;2024-01-27T00:33:19;91664.28;;;-145.37;100.00
13486;BME280;6815;59.336;17.998;2024-01-27T00:35:44;91524.94;;;-145.37;100.00
13486;BME280;6815;59.336;17.998;2024-01-27T00:38:10;91636.00;;;-145.37;100.00
13486;BME280;6815;59.336;17.998;2024-01-27T00:40:35;91438.13;;;-145.37;100.00
13486;BME280;6815;59.336;17.998;2024-01-27T00:43:04;91674.38;;;-145.37;100.00
13486;BME280;6815;59.336;17.998;2024-01-27T00:45:29;91565.34;;;-145.37;100.00
13486;BME280;6815;59.336;17.998;2024-01-27T00:47:56;91668.31;;;-145.37;100.00
13486;BME280;6815;59.336;17.998;2024-01-27T00:50:21;92009.63;;;-145.37;100.00
13486;BME280;6815;59.336;17.998;2024-01-27T00:52:47;91672.38;;;-145.37;100.00
13486;BME280;6815;59.336;17.998;2024-01-27T00:55:12;91636.00;;;-145.37;100.00
13486;BME280;6815;59.336;17.998;2024-01-27T00:57:38;91698.63;;;-145.37;100.00
13486;BME280;6815;59.336;17.998;2024-01-27T01:00:06;91678.41;;;-145.37;100.00
13486;BME280;6815;59.336;17.998;2024-01-27T01:02:32;91702.66;;;-145.37;100.00
13486;BME280;6815;59.336;17.998;2024-01-27T01:04:57;91640.06;;;-145.37;100.00
13486;BME280;6815;59.336;17.998;2024-01-27T01:07:23;91670.34;;;-145.37;100.00
13486;BME280;6815;59.336;17.998;2024-01-27T01:09:48;91524.94;;;-145.37;100.00
13486;BME280;6815;59.336;17.998;2024-01-27T01:12:13;91432.06;;;-145.37;100.00
13486;BME280;6815;59.336;17.998;2024-01-27T01:14:40;91682.47;;;-145.37;100.00
13486;BME280;6815;59.336;17.998;2024-01-27T01:17:05;91706.69;;;-145.37;100.00
13486;BME280;6815;59.336;17.998;2024-01-27T01:19:31;91688.50;;;-145.37;100.00
13486;BME280;6815;59.336;17.998;2024-01-27T01:21:56;91664.28;;;-145.37;100.00
13486;BME280;6815;59.336;17.998;2024-01-27T01:24:22;91654.19;;;-145.37;100.00
13486;BME280;6815;59.336;17.998;2024-01-27T01:26:47;92120.69;;;-145.37;100.00
13486;BME280;6815;59.336;17.998;2024-01-27T01:29:13;91694.56;;;-145.37;100.00
13486;BME280;6815;59.336;17.998;2024-01-27T01:31:41;91674.38;;;-145.37;100.00
13486;BME280;6815;59.336;17.998;2024-01-27T01:34:07;91686.50;;;-145.37;100.00
13486;BME280;6815;59.336;17.998;2024-01-27T01:36:33;91617.84;;;-145.37;100.00
13486;BME280;6815;59.336;17.998;2024-01-27T01:38:58;91553.22;;;-145.37;100.00
13486;BME280;6815;59.336;17.998;2024-01-27T01:41:24;91666.31;;;-145.37;100.00
13486;BME280;6815;59.336;17.998;2024-01-27T01:43:49;92225.72;;;-145.37;100.00
13486;BME280;6815;59.336;17.998;2024-01-27T01:46:15;91708.72;;;-145.37;100.00
13486;BME280;6815;59.336;17.998;2024-01-27T01:48:40;91670.34;;;-145.37;100.00
13486;BME280;6815;59.336;17.998;2024-01-27T01:51:06;91706.69;;;-145.37;100.00
13486;BME280;6815;59.336;17.998;2024-01-27T01:53:32;92217.63;;;-145.37;100.00
13486;BME280;6815;59.336;17.998;2024-01-27T01:55:57;91759.19;;;-145.37;100.00
13486;BME280;6815;59.336;17.998;2024-01-27T01:58:29;91642.06;;;-145.37;100.00
13486;BME280;6815;59.336;17.998;2024-01-27T02:01:00;91666.31;;;-145.37;100.00
13486;BME280;6815;59.336;17.998;2024-01-27T02:03:25;91682.47;;;-145.37;100.00
13486;BME280;6815;59.336;17.998;2024-01-27T02:05:51;91666.31;;;-145.37;100.00
13486;BME280;6815;59.336;17.998;2024-01-27T02:08:17;91680.44;;;-145.37;100.00
13486;BME280;6815;59.336;17.998;2024-01-27T02:10:42;91607.75;;;-145.37;100.00
13486;BME280;6815;59.336;17.998;2024-01-27T02:13:21;91678.41;;;-145.37;100.00
13486;BME280;6815;59.336;17.998;2024-01-27T02:15:48;91658.22;;;-145.37;100.00
13486;BME280;6815;59.336;17.998;2024-01-27T02:18:14;91674.38;;;-145.37;100.00
13486;BME280;6815;59.336;17.998;2024-01-27T02:20:41;91652.16;;;-145.37;100.00
13486;BME280;6815;59.336;17.998;2024-01-27T02:23:07;91658.22;;;-145.37;100.00
13486;BME280;6815;59.336;17.998;2024-01-27T02:25:33;91638.03;;;-145.37;100.00
13486;BME280;6815;59.336;17.998;2024-01-27T02:27:58;91688.50;;;-145.37;100.00
13486;BME280;6815;59.336;17.998;2024-01-27T02:30:24;92237.84;;;-145.37;100.00
13486;BME280;6815;59.336;17.998;2024-01-27T02:32:50;91698.63;;;-145.37;100.00
13486;BME280;6815;59.336;17.998;2024-01-27T02:35:15;91652.16;;;-145.37;100.00
13486;BME280;6815;59.336;17.998;2024-01-27T02:37:41;91710.72;;;-145.37;100.00
13486;BME280;6815;59.336;17.998;2024-01-27T02:40:08;91710.72;;;-145.37;100.00
13486;BME280;6815;59.336;17.998;2024-01-27T02:42:35;91712.75;;;-145.37;100.00
13486;BME280;6815;59.336;17.998;2024-01-27T02:45:01;91617.84;;;-145.37;100.00
13486;BME280;6815;59.336;17.998;2024-01-27T02:47:26;91664.28;;;-145.37;100.00
13486;BME280;6815;59.336;17.998;2024-01-27T02:49:52;91736.97;;;-145.37;100.00
13486;BME280;6815;59.336;17.998;2024-01-27T02:52:17;91613.81;;;-145.37;100.00
13486;BME280;6815;59.336;17.998;2024-01-27T02:54:42;91720.81;;;-145.37;100.00
13486;BME280;6815;59.336;17.998;2024-01-27T02:57:08;91678.41;;;-145.37;100.00
13486;BME280;6815;59.336;17.998;2024-01-27T02:59:33;92029.81;;;-145.37;100.00
13486;BME280;6815;59.336;17.998;2024-01-27T03:01:59;91668.31;;;-145.37;100.00
13486;BME280;6815;59.336;17.998;2024-01-27T03:04:24;91722.84;;;-145.37;100.00
13486;BME280;6815;59.336;17.998;2024-01-27T03:06:50;91658.22;;;-145.37;100.00
13486;BME280;6815;59.336;17.998;2024-01-27T03:09:15;91672.38;;;-145.37;100.00
13486;BME280;6815;59.336;17.998;2024-01-27T03:11:41;91682.47;;;-145.37;100.00
13486;BME280;6815;59.336;17.998;2024-01-27T03:14:06;91690.53;;;-145.37;100.00
13486;BME280;6815;59.336;17.998;2024-01-27T03:16:32;91444.19;;;-145.37;100.00
13486;BME280;6815;59.336;17.998;2024-01-27T03:18:57;91652.16;;;-145.37;100.00
13486;BME280;6815;59.336;17.998;2024-01-27T03:21:23;91688.50;;;-145.37;100.00
13486;BME280;6815;59.336;17.998;2024-01-27T03:23:48;91642.06;;;-145.37;100.00
13486;BME280;6815;59.336;17.998;2024-01-27T03:26:14;91646.09;;;-145.37;100.00
13486;BME280;6815;59.336;17.998;2024-01-27T03:28:39;91644.09;;;-145.37;100.00
13486;BME280;6815;59.336;17.998;2024-01-27T03:31:05;91708.72;;;-145.37;100.00
13486;BME280;6815;59.336;17.998;2024-01-27T03:33:31;91613.81;;;-145.37;100.00
13486;BME280;6815;59.336;17.998;2024-01-27T03:35:56;91682.47;;;-145.37;100.00
13486;BME280;6815;59.336;17.998;2024-01-27T03:38:22;91648.13;;;-145.37;100.00
13486;BME280;6815;59.336;17.998;2024-01-27T03:40:47;91640.06;;;-145.37;100.00
13486;BME280;6815;59.336;17.998;2024-01-27T03:43:13;91704.66;;;-145.37;100.00
13486;BME280;6815;59.336;17.998;2024-01-27T03:45:38;91684.47;;;-145.37;100.00
13486;BME280;6815;59.336;17.998;2024-01-27T03:48:04;91672.38;;;-145.37;100.00
13486;BME280;6815;59.336;17.998;2024-01-27T03:50:30;91682.47;;;-145.37;100.00
13486;BME280;6815;59.336;17.998;2024-01-27T03:52:55;91718.81;;;-145.37;100.00
13486;BME280;6815;59.336;17.998;2024-01-27T03:55:21;91692.56;;;-145.37;100.00
13486;BME280;6815;59.336;17.998;2024-01-27T03:57:46;91714.78;;;-145.37;100.00
13486;BME280;6815;59.336;17.998;2024-01-27T04:00:12;91696.59;;;-145.37;100.00
13486;BME280;6815;59.336;17.998;2024-01-27T04:02:38;91716.78;;;-145.37;100.00
13486;BME280;6815;59.336;17.998;2024-01-27T04:05:05;91706.69;;;-145.37;100.00
13486;BME280;6815;59.336;17.998;2024-01-27T04:07:30;91726.88;;;-145.37;100.00
13486;BME280;6815;59.336;17.998;2024-01-27T04:09:56;91670.34;;;-145.37;100.00
13486;BME280;6815;59.336;17.998;2024-01-27T04:12:21;91648.13;;;-145.37;100.00
13486;BME280;6815;59.336;17.998;2024-01-27T04:14:47;91708.72;;;-145.37;100.00
13486;BME280;6815;59.336;17.998;2024-01-27T04:17:12;91660.25;;;-145.37;99.60
13486;BME280;6815;59.336;17.998;2024-01-27T04:19:38;91751.13;;;-145.37;99.80
13486;BME280;6815;59.336;17.998;2024-01-27T04:22:03;91706.69;;;-145.37;99.78
13486;BME280;6815;59.336;17.998;2024-01-27T04:24:29;91728.91;;;-145.37;99.51
13486;BME280;6815;59.336;17.998;2024-01-27T04:26:54;91706.69;;;-145.37;99.54
13486;BME280;6815;59.336;17.998;2024-01-27T04:29:20;91702.66;;;-145.37;99.14
13486;BME280;6815;59.336;17.998;2024-01-27T04:31:45;91743.03;;;-145.37;99.34
13486;BME280;6815;59.336;17.998;2024-01-27T04:34:11;91720.81;;;-145.37;99.24
13486;BME280;6815;59.336;17.998;2024-01-27T04:36:36;91690.53;;;-145.37;98.68
13486;BME280;6815;59.336;17.998;2024-01-27T04:39:02;91745.06;;;-145.37;98.54
13486;BME280;6815;59.336;17.998;2024-01-27T04:41:28;92050.00;;;-145.37;98.39
13486;BME280;6815;59.336;17.998;2024-01-27T04:43:53;91646.09;;;-145.37;98.60
13486;BME280;6815;59.336;17.998;2024-01-27T04:46:21;91706.69;;;-145.37;98.13
13486;BME280;6815;59.336;17.998;2024-01-27T04:48:47;91706.69;;;-145.37;98.19
13486;BME280;6815;59.336;17.998;2024-01-27T04:51:12;91726.88;;;-145.37;98.11
13486;BME280;6815;59.336;17.998;2024-01-27T04:53:38;91617.84;;;-145.37;98.38
13486;BME280;6815;59.336;17.998;2024-01-27T04:56:03;91724.88;;;-145.37;98.22
13486;BME280;6815;59.336;17.998;2024-01-27T04:58:33;91706.69;;;-145.37;98.45
13486;BME280;6815;59.336;17.998;2024-01-27T05:00:59;91726.88;;;-145.37;98.71
13486;BME280;6815;59.336;17.998;2024-01-27T05:03:24;91749.09;;;-145.37;98.52
13486;BME280;6815;59.336;17.998;2024-01-27T05:05:50;91722.84;;;-145.37;98.54
13486;BME280;6815;59.336;17.998;2024-01-27T05:08:16;91720.81;;;-145.37;98.46
13486;BME280;6815;59.336;17.998;2024-01-27T05:10:42;91730.94;;;-145.37;98.20
13486;BME280;6815;59.336;17.998;2024-01-27T05:13:07;91739.00;;;-145.37;97.76
13486;BME280;6815;59.336;17.998;2024-01-27T05:15:33;91664.28;;;-145.37;97.80
13486;BME280;6815;59.336;17.998;2024-01-27T05:17:59;91652.16;;;-145.37;97.93
13486;BME280;6815;59.336;17.998;2024-01-27T05:20:24;91712.75;;;-145.37;98.00
13486;BME280;6815;59.336;17.998;2024-01-27T05:22:50;91720.81;;;-145.37;98.21
13486;BME280;6815;59.336;17.998;2024-01-27T05:25:15;91724.88;;;-145.37;97.46
13486;BME280;6815;59.336;17.998;2024-01-27T05:27:41;91708.72;;;-145.37;97.40
13486;BME280;6815;59.336;17.998;2024-01-27T05:30:07;91700.63;;;-145.37;97.61
13486;BME280;6815;59.336;17.998;2024-01-27T05:32:33;91720.81;;;-145.37;97.72
13486;BME280;6815;59.336;17.998;2024-01-27T05:34:59;91722.84;;;-145.37;97.97
13486;BME280;6815;59.336;17.998;2024-01-27T05:37:24;91605.72;;;-145.37;97.56
13486;BME280;6815;59.336;17.998;2024-01-27T05:39:50;91732.94;;;-145.37;97.40
13486;BME280;6815;59.336;17.998;2024-01-27T05:42:15;91749.09;;;-145.37;97.66
13486;BME280;6815;59.336;17.998;2024-01-27T05:44:40;91710.72;;;-145.37;97.89
13486;BME280;6815;59.336;17.998;2024-01-27T05:47:07;91603.69;;;-145.37;98.11
13486;BME280;6815;59.336;17.998;2024-01-27T05:49:32;91674.38;;;-145.37;98.49
13486;BME280;6815;59.336;17.998;2024-01-27T05:51:58;91684.47;;;-145.37;99.39
13486;BME280;6815;59.336;17.998;2024-01-27T05:54:24;91747.09;;;-145.37;99.61
13486;BME280;6815;59.336;17.998;2024-01-27T05:56:50;91765.25;;;-145.37;99.65
13486;BME280;6815;59.336;17.998;2024-01-27T05:59:15;91702.66;;;-145.37;98.84
13486;BME280;6815;59.336;17.998;2024-01-27T06:01:41;91698.63;;;-145.37;98.34
13486;BME280;6815;59.336;17.998;2024-01-27T06:04:08;91712.75;;;-145.37;98.09
13486;BME280;6815;59.336;17.998;2024-01-27T06:06:34;91751.13;;;-145.37;98.70
13486;BME280;6815;59.336;17.998;2024-01-27T06:08:59;91642.06;;;-145.37;98.71
13486;BME280;6815;59.336;17.998;2024-01-27T06:11:25;91753.13;;;-145.37;98.91
13486;BME280;6815;59.336;17.998;2024-01-27T06:13:52;91732.94;;;-145.37;98.85
13486;BME280;6815;59.336;17.998;2024-01-27T06:16:18;91654.19;;;-145.37;97.79
13486;BME280;6815;59.336;17.998;2024-01-27T06:18:46;91751.13;;;-145.37;98.11
13486;BME280;6815;59.336;17.998;2024-01-27T06:21:11;91708.72;;;-145.37;97.78
13486;BME280;6815;59.336;17.998;2024-01-27T06:23:37;91724.88;;;-145.37;97.62
13486;BME280;6815;59.336;17.998;2024-01-27T06:26:09;91745.06;;;-145.37;97.88
13486;BME280;6815;59.336;17.998;2024-01-27T06:28:35;91777.38;;;-145.37;97.37
13486;BME280;6815;59.336;17.998;2024-01-27T06:31:02;91745.06;;;-145.37;97.63
13486;BME280;6815;59.336;17.998;2024-01-27T06:33:28;91706.69;;;-145.37;97.59
13486;BME280;6815;59.336;17.998;2024-01-27T06:35:53;91773.34;;;-145.37;97.80
13486;BME280;6815;59.336;17.998;2024-01-27T06:38:19;91688.50;;;-145.37;97.54
13486;BME280;6815;59.336;17.998;2024-01-27T06:40:44;91732.94;;;-145.37;97.65
13486;BME280;6815;59.336;17.998;2024-01-27T06:43:12;91743.03;;;-145.37;97.27
13486;BME280;6815;59.336;17.998;2024-01-27T06:45:39;91882.38;;;-145.37;97.69
13486;BME280;6815;59.336;17.998;2024-01-27T06:48:05;91741.03;;;-145.37;97.89
13486;BME280;6815;59.336;17.998;2024-01-27T06:50:32;91696.59;;;-145.37;98.06
13486;BME280;6815;59.336;17.998;2024-01-27T06:52:57;91753.13;;;-145.37;98.14
13486;BME280;6815;59.336;17.998;2024-01-27T06:55:23;91690.53;;;-145.37;98.24
13486;BME280;6815;59.336;17.998;2024-01-27T06:57:48;91880.38;;;-145.37;98.01
13486;BME280;6815;59.336;17.998;2024-01-27T07:00:14;91757.19;;;-145.37;97.81
13486;BME280;6815;59.336;17.998;2024-01-27T07:02:40;91755.16;;;-145.37;97.94
13486;BME280;6815;59.336;17.998;2024-01-27T07:05:08;92070.19;;;-145.37;98.40
13486;BME280;6815;59.336;17.998;2024-01-27T07:07:33;92290.34;;;-145.37;97.94
13486;BME280;6815;59.336;17.998;2024-01-27T07:09:59;91583.50;;;-145.37;97.96
13486;BME280;6815;59.336;17.998;2024-01-27T07:12:25;91700.63;;;-145.37;98.05
13486;BME280;6815;59.336;17.998;2024-01-27T07:14:50;91761.22;;;-145.37;98.20
13486;BME280;6815;59.336;17.998;2024-01-27T07:17:22;91995.47;;;-145.37;98.26
13486;BME280;6815;59.336;17.998;2024-01-27T07:19:49;91736.97;;;-145.37;98.63
13486;BME280;6815;59.336;17.998;2024-01-27T07:22:16;91696.59;;;-145.37;98.26
13486;BME280;6815;59.336;17.998;2024-01-27T07:24:41;91759.19;;;-145.37;98.08
13486;BME280;6815;59.336;17.998;2024-01-27T07:27:07;91773.34;;;-145.37;98.03
13486;BME280;6815;59.336;17.998;2024-01-27T07:29:32;91765.25;;;-145.37;98.05
13486;BME280;6815;59.336;17.998;2024-01-27T07:31:58;92264.09;;;-145.37;98.22
13486;BME280;6815;59.336;17.998;2024-01-27T07:34:25;91757.19;;;-145.37;98.12
13486;BME280;6815;59.336;17.998;2024-01-27T07:36:50;91775.34;;;-145.37;98.08
13486;BME280;6815;59.336;17.998;2024-01-27T07:39:16;91700.63;;;-145.37;98.20
13486;BME280;6815;59.336;17.998;2024-01-27T07:41:41;91698.63;;;-145.37;97.98
13486;BME280;6815;59.336;17.998;2024-01-27T07:44:10;91759.19;;;-145.37;97.98
13486;BME280;6815;59.336;17.998;2024-01-27T07:46:37;91757.19;;;-145.37;97.72
13486;BME280;6815;59.336;17.998;2024-01-27T07:49:02;92052.03;;;-145.37;98.39
13486;BME280;6815;59.336;17.998;2024-01-27T07:51:28;91777.38;;;-145.37;99.08
13486;BME280;6815;59.336;17.998;2024-01-27T07:53:54;91789.50;;;-145.37;98.52
13486;BME280;6815;59.336;17.998;2024-01-27T07:56:19;91799.59;;;-145.37;98.21
13486;BME280;6815;59.336;17.998;2024-01-27T07:58:45;91694.56;;;-145.37;97.43
13486;BME280;6815;59.336;17.998;2024-01-27T08:01:13;92114.63;;;-145.37;97.74
13486;BME280;6815;59.336;17.998;2024-01-27T08:03:39;91779.41;;;-145.37;97.24
13486;BME280;6815;59.336;17.998;2024-01-27T08:06:06;91749.09;;;-145.37;97.15
13486;BME280;6815;59.336;17.998;2024-01-27T08:08:34;91765.25;;;-145.37;96.58
13486;BME280;6815;59.336;17.998;2024-01-27T08:11:00;91745.06;;;-145.37;97.42
13486;BME280;6815;59.336;17.998;2024-01-27T08:13:25;91755.16;;;-145.37;97.29
13486;BME280;6815;59.336;17.998;2024-01-27T08:15:50;91773.34;;;-145.37;96.87
13486;BME280;6815;59.336;17.998;2024-01-27T08:18:16;91805.66;;;-145.37;97.11
13486;BME280;6815;59.336;17.998;2024-01-27T08:20:41;91825.84;;;-145.37;96.94
13486;BME280;6815;59.336;17.998;2024-01-27T08:23:07;91811.69;;;-145.37;96.19
13486;BME280;6815;59.336;17.998;2024-01-27T08:25:34;91759.19;;;-145.37;96.57
13486;BME280;6815;59.336;17.998;2024-01-27T08:27:59;91690.53;;;-145.37;96.97
13486;BME280;6815;59.336;17.998;2024-01-27T08:30:25;91809.69;;;-145.37;96.79
13486;BME280;6815;59.336;17.998;2024-01-27T08:32:50;91797.56;;;-145.37;96.52
13486;BME280;6815;59.336;17.998;2024-01-27T08:35:16;91741.03;;;-145.37;96.25
13486;BME280;6815;59.336;17.998;2024-01-27T08:37:41;91805.66;;;-145.37;96.10
13486;BME280;6815;59.336;17.998;2024-01-27T08:40:08;91801.59;;;-145.37;96.40
13486;BME280;6815;59.336;17.998;2024-01-27T08:42:33;91793.53;;;-145.37;96.38
13486;BME280;6815;59.336;17.998;2024-01-27T08:44:59;91795.53;;;-145.37;96.57
13486;BME280;6815;59.336;17.998;2024-01-27T08:47:24;91813.72;;;-145.37;96.16
13486;BME280;6815;59.336;17.998;2024-01-27T08:49:50;91775.34;;;-145.37;96.57
13486;BME280;6815;59.336;17.998;2024-01-27T08:52:15;91749.09;;;-145.37;96.34
13486;BME280;6815;59.336;17.998;2024-01-27T08:54:41;91751.13;;;-145.37;95.76
13486;BME280;6815;59.336;17.998;2024-01-27T08:57:06;91785.44;;;-145.37;96.27
13486;BME280;6815;59.336;17.998;2024-01-27T08:59:32;91777.38;;;-145.37;95.81
13486;BME280;6815;59.336;17.998;2024-01-27T09:01:58;91833.91;;;-145.37;95.83
13486;BME280;6815;59.336;17.998;2024-01-27T09:04:23;91797.56;;;-145.37;95.00
13486;BME280;6815;59.336;17.998;2024-01-27T09:06:49;91795.53;;;-145.37;95.75
13486;BME280;6815;59.336;17.998;2024-01-27T09:09:14;91749.09;;;-145.37;96.09
13486;BME280;6815;59.336;17.998;2024-01-27T09:11:39;91775.34;;;-145.37;95.77
13486;BME280;6815;59.336;17.998;2024-01-27T09:14:05;91706.69;;;-145.37;95.99
13486;BME280;6815;59.336;17.998;2024-01-27T09:16:32;91783.44;;;-145.37;96.13
13486;BME280;6815;59.336;17.998;2024-01-27T09:18:58;91726.88;;;-145.37;95.95
13486;BME280;6815;59.336;17.998;2024-01-27T09:21:23;91803.63;;;-145.37;95.27
13486;BME280;6815;59.336;17.998;2024-01-27T09:23:54;91739.00;;;-145.37;94.96
13486;BME280;6815;59.336;17.998;2024-01-27T09:26:20;91779.41;;;-145.37;95.01
13486;BME280;6815;59.336;17.998;2024-01-27T09:28:45;91797.56;;;-145.37;94.94
13486;BME280;6815;59.336;17.998;2024-01-27T09:31:22;91749.09;;;-145.37;95.34
13486;BME280;6815;59.336;17.998;2024-01-27T09:33:51;91753.13;;;-145.37;94.89
13486;BME280;6815;59.336;17.998;2024-01-27T09:36:18;91621.88;;;-145.37;94.67
13486;BME280;6815;59.336;17.998;2024-01-27T09:38:44;91755.16;;;-145.37;94.42
13486;BME280;6815;59.336;17.998;2024-01-27T09:41:11;91779.41;;;-145.37;94.83
13486;BME280;6815;59.336;17.998;2024-01-27T09:43:44;91771.31;;;-145.37;94.33
13486;BME280;6815;59.336;17.998;2024-01-27T09:46:14;92223.69;;;-145.37;94.45
13486;BME280;6815;59.336;17.998;2024-01-27T09:48:39;91739.00;;;-145.37;94.32
13486;BME280;6815;59.336;17.998;2024-01-27T09:51:07;91678.41;;;-145.37;94.10
13486;BME280;6815;59.336;17.998;2024-01-27T09:53:33;91716.78;;;-145.37;93.73
13486;BME280;6815;59.336;17.998;2024-01-27T09:55:59;91708.72;;;-145.37;94.01
13486;BME280;6815;59.336;17.998;2024-01-27T09:58:29;91761.22;;;-145.37;94.19
13486;BME280;6815;59.336;17.998;2024-01-27T10:01:00;91775.34;;;-145.37;93.54
13486;BME280;6815;59.336;17.998;2024-01-27T10:03:27;91771.31;;;-145.37;93.30
13486;BME280;6815;59.336;17.998;2024-01-27T10:05:54;91775.34;;;-145.37;93.59
13486;BME280;6815;59.336;17.998;2024-01-27T10:08:21;91757.19;;;-145.37;93.70
13486;BME280;6815;59.336;17.998;2024-01-27T10:10:49;91769.28;;;-145.37;93.46
13486;BME280;6815;59.336;17.998;2024-01-27T10:13:19;91704.66;;;-145.37;93.11
13486;BME280;6815;59.336;17.998;2024-01-27T10:15:59;91706.69;;;-145.37;92.92
13486;BME280;6815;59.336;17.998;2024-01-27T10:18:25;91751.13;;;-145.37;92.95
13486;BME280;6815;59.336;17.998;2024-01-27T10:20:50;91700.63;;;-145.37;93.50
13486;BME280;6815;59.336;17.998;2024-01-27T10:23:16;91775.34;;;-145.37;93.15
13486;BME280;6815;59.336;17.998;2024-01-27T10:25:43;91736.97;;;-145.37;93.07
13486;BME280;6815;59.336;17.998;2024-01-27T10:28:09;91745.06;;;-145.37;92.55
13486;BME280;6815;59.336;17.998;2024-01-27T10:30:36;91726.88;;;-145.37;92.74
13486;BME280;6815;59.336;17.998;2024-01-27T10:33:02;91585.53;;;-145.37;92.30
13486;BME280;6815;59.336;17.998;2024-01-27T10:35:28;91714.78;;;-145.37;92.43
13486;BME280;6815;59.336;17.998;2024-01-27T10:37:55;91791.50;;;-145.37;93.08
13486;BME280;6815;59.336;17.998;2024-01-27T10:40:21;91708.72;;;-145.37;92.54
13486;BME280;6815;59.336;17.998;2024-01-27T10:43:03;91739.00;;;-145.37;91.93
13486;BME280;6815;59.336;17.998;2024-01-27T10:45:39;91724.88;;;-145.37;92.17
13486;BME280;6815;59.336;17.998;2024-01-27T10:48:07;91734.97;;;-145.37;91.66
13486;BME280;6815;59.336;17.998;2024-01-27T10:50:39;91623.91;;;-145.37;91.70
13486;BME280;6815;59.336;17.998;2024-01-27T10:53:22;91682.47;;;-145.37;91.49
13486;BME280;6815;59.336;17.998;2024-01-27T10:55:52;91700.63;;;-145.37;91.72
13486;BME280;6815;59.336;17.998;2024-01-27T10:58:19;91716.78;;;-145.37;92.04
13486;BME280;6815;59.336;17.998;2024-01-27T11:00:48;91728.91;;;-145.37;91.98
13486;BME280;6815;59.336;17.998;2024-01-27T11:03:13;92268.13;;;-145.37;91.61
13486;BME280;6815;59.336;17.998;2024-01-27T11:05:40;92365.09;;;-145.37;92.11
13486;BME280;6815;59.336;17.998;2024-01-27T11:08:06;91730.94;;;-145.37;91.90
13486;BME280;6815;59.336;17.998;2024-01-27T11:10:34;90947.47;;;-145.37;92.04
13486;BME280;6815;59.336;17.998;2024-01-27T11:13:04;91660.25;;;-145.37;92.65
13486;BME280;6815;59.336;17.998;2024-01-27T11:15:30;91714.78;;;-145.37;92.68
13486;BME280;6815;59.336;17.998;2024-01-27T11:17:59;91670.34;;;-145.37;92.59
13486;BME280;6815;59.336;17.998;2024-01-27T11:20:26;91565.34;;;-145.37;93.00
13486;BME280;6815;59.336;17.998;2024-01-27T11:22:51;91781.41;;;-145.37;92.96
13486;BME280;6815;59.336;17.998;2024-01-27T11:25:18;91755.16;;;-145.37;92.83
13486;BME280;6815;59.336;17.998;2024-01-27T11:27:45;91736.97;;;-145.37;92.48
13486;BME280;6815;59.336;17.998;2024-01-27T11:30:27;91656.22;;;-145.37;92.31
13486;BME280;6815;59.336;17.998;2024-01-27T11:32:56;91708.72;;;-145.37;92.44
13486;BME280;6815;59.336;17.998;2024-01-27T11:35:23;91718.81;;;-145.37;92.32
13486;BME280;6815;59.336;17.998;2024-01-27T11:37:49;91706.69;;;-145.37;92.21
13486;BME280;6815;59.336;17.998;2024-01-27T11:40:14;91710.72;;;-145.37;91.69
13486;BME280;6815;59.336;17.998;2024-01-27T11:42:41;91692.56;;;-145.37;91.30
13486;BME280;6815;59.336;17.998;2024-01-27T11:45:10;91601.69;;;-145.37;91.33
13486;BME280;6815;59.336;17.998;2024-01-27T11:47:35;91696.59;;;-145.37;91.39
13486;BME280;6815;59.336;17.998;2024-01-27T11:50:02;91573.41;;;-145.37;91.35
13486;BME280;6815;59.336;17.998;2024-01-27T11:52:28;91718.81;;;-145.37;91.27
13486;BME280;6815;59.336;17.998;2024-01-27T11:54:58;91724.88;;;-145.37;91.66
13486;BME280;6815;59.336;17.998;2024-01-27T11:57:24;91726.88;;;-145.37;91.58
13486;BME280;6815;59.336;17.998;2024-01-27T11:59:51;91708.72;;;-145.37;91.28
13486;BME280;6815;59.336;17.998;2024-01-27T12:02:17;91678.41;;;-145.37;91.14
13486;BME280;6815;59.336;17.998;2024-01-27T12:04:42;91512.84;;;-145.37;91.62
13486;BME280;6815;59.336;17.998;2024-01-27T12:07:08;91662.25;;;-145.37;91.71
13486;BME280;6815;59.336;17.998;2024-01-27T12:09:36;91708.72;;;-145.37;91.71
13486;BME280;6815;59.336;17.998;2024-01-27T12:12:02;91706.69;;;-145.37;91.84
13486;BME280;6815;59.336;17.998;2024-01-27T12:14:48;91734.97;;;-145.37;91.78
13486;BME280;6815;59.336;17.998;2024-01-27T12:17:14;91674.38;;;-145.37;91.71
13486;BME280;6815;59.336;17.998;2024-01-27T12:19:51;91678.41;;;-145.37;91.55
13486;BME280;6815;59.336;17.998;2024-01-27T12:22:24;91700.63;;;-145.37;91.84
13486;BME280;6815;59.336;17.998;2024-01-27T12:24:54;91668.31;;;-145.37;91.97
13486;BME280;6815;59.336;17.998;2024-01-27T12:27:21;91577.44;;;-145.37;91.76
13486;BME280;6815;59.336;17.998;2024-01-27T12:29:48;91722.84;;;-145.37;91.94
13486;BME280;6815;59.336;17.998;2024-01-27T12:32:15;91682.47;;;-145.37;91.73